createdAt,value
2022-09-23T00:00:56.773Z,16.56
2022-09-23T00:02:57.511Z,16.56
2022-09-23T00:05:56.777Z,16.57
2022-09-23T00:08:57.295Z,16.58
2022-09-23T00:11:56.764Z,16.56
2022-09-23T00:13:56.761Z,16.57
2022-09-23T00:15:56.956Z,16.46
2022-09-23T00:18:56.771Z,16.43
2022-09-23T00:20:57.438Z,16.34
2022-09-23T00:23:56.761Z,16.42
2022-09-23T00:25:57.511Z,16.37
2022-09-23T00:29:57.232Z,16.26
2022-09-23T00:31:57.276Z,16.28
2022-09-23T00:34:56.884Z,16.2
2022-09-23T00:37:57.335Z,16.12
2022-09-23T00:40:56.995Z,15.99
2022-09-23T00:42:57.134Z,16.03
2022-09-23T00:45:56.787Z,16.04
2022-09-23T00:47:56.786Z,16.07
2022-09-23T00:50:55.856Z,16.14
2022-09-23T00:52:56.771Z,16.12
2022-09-23T00:54:57.418Z,16.06
2022-09-23T00:57:56.747Z,16.04
2022-09-23T00:59:57.719Z,16.03
2022-09-23T01:02:56.761Z,16.06
2022-09-23T01:04:57.515Z,15.99
2022-09-23T01:06:57.613Z,15.9
2022-09-23T01:09:56.781Z,15.81
2022-09-23T01:11:56.785Z,15.89
2022-09-23T01:14:57.540Z,15.89
2022-09-23T01:17:57.414Z,15.91
2022-09-23T01:20:56.952Z,15.79
2022-09-23T01:23:56.764Z,15.69
2022-09-23T01:25:56.765Z,15.7
2022-09-23T01:27:57.388Z,15.78
2022-09-23T01:30:57.281Z,15.86
2022-09-23T01:33:56.773Z,15.86
2022-09-23T01:36:56.804Z,15.75
2022-09-23T01:38:57.417Z,15.73
2022-09-23T01:41:57.260Z,15.63
2022-09-23T01:44:56.784Z,15.64
2022-09-23T01:46:56.902Z,15.56
2022-09-23T01:48:57.703Z,15.52
2022-09-23T01:51:57.235Z,15.59
2022-09-23T01:53:57.509Z,15.65
2022-09-23T01:56:55.833Z,15.57
2022-09-23T01:58:56.810Z,15.58
2022-09-23T02:00:56.835Z,15.59
2022-09-23T02:03:56.812Z,15.61
2022-09-23T02:05:57.180Z,15.54
2022-09-23T02:08:58.103Z,15.3
2022-09-23T02:11:58.839Z,15.34
2022-09-23T02:14:56.790Z,15.37
2022-09-23T02:18:56.900Z,15.35
2022-09-23T02:20:57.050Z,15.32
2022-09-23T02:23:57.562Z,15.37
2022-09-23T02:26:56.767Z,15.32
2022-09-23T02:29:56.781Z,15.36
2022-09-23T02:31:56.853Z,15.37
2022-09-23T02:33:56.973Z,15.32
2022-09-23T02:36:56.769Z,15.26
2022-09-23T02:38:57.179Z,15.24
2022-09-23T02:41:57.291Z,15.24
2022-09-23T02:44:56.816Z,15.23
2022-09-23T02:46:57.461Z,15.29
2022-09-23T02:49:56.811Z,15.27
2022-09-23T02:52:56.851Z,15.2
2022-09-23T02:54:57.507Z,15.2
2022-09-23T02:57:57.457Z,15.06
2022-09-23T03:02:56.810Z,14.97
2022-09-23T03:04:56.931Z,14.9
2022-09-23T03:06:57.446Z,14.91
2022-09-23T03:09:56.784Z,14.92
2022-09-23T03:12:57.454Z,14.93
2022-09-23T03:15:57.573Z,15.02
2022-09-23T03:18:56.767Z,15.01
2022-09-23T03:20:57.271Z,14.93
2022-09-23T03:24:56.777Z,14.84
2022-09-23T03:26:56.778Z,14.84
2022-09-23T03:28:57.451Z,14.79
2022-09-23T03:31:56.834Z,14.88
2022-09-23T03:33:57.362Z,14.94
2022-09-23T03:36:56.779Z,14.9
2022-09-23T03:38:57.038Z,14.88
2022-09-23T03:40:57.601Z,14.93
2022-09-23T03:42:57.640Z,14.86
2022-09-23T03:45:55.882Z,14.79
2022-09-23T03:48:56.891Z,14.77
2022-09-23T03:50:57.161Z,14.73
2022-09-23T03:52:57.650Z,14.62
2022-09-23T03:55:56.812Z,14.65
2022-09-23T03:57:57.341Z,14.67
2022-09-23T04:00:56.871Z,14.65
2022-09-23T04:02:57.031Z,14.67
2022-09-23T04:05:57.427Z,14.68
2022-09-23T04:08:56.803Z,14.62
2022-09-23T04:10:56.813Z,14.58
2022-09-23T04:13:57.157Z,14.57
2022-09-23T04:16:56.790Z,14.52
2022-09-23T04:19:56.827Z,14.58
2022-09-23T04:22:57.411Z,14.6
2022-09-23T04:25:57.341Z,14.54
2022-09-23T04:28:57.579Z,14.35
2022-09-23T04:31:57.625Z,14.43
2022-09-23T04:34:57.065Z,14.59
2022-09-23T04:37:57.184Z,14.54
2022-09-23T04:40:56.785Z,14.6
2022-09-23T04:42:56.781Z,14.52
2022-09-23T04:44:57.548Z,14.43
2022-09-23T04:47:56.782Z,14.53
2022-09-23T04:49:59.659Z,14.58
2022-09-23T04:52:56.766Z,14.52
2022-09-23T04:54:56.789Z,14.52
2022-09-23T04:56:56.879Z,14.44
2022-09-23T04:59:56.830Z,14.53
2022-09-23T05:01:57.111Z,14.54
2022-09-23T05:03:57.347Z,14.61
2022-09-23T05:07:02.292Z,14.56
2022-09-23T05:09:57.645Z,14.55
2022-09-23T05:12:57.316Z,14.5
2022-09-23T05:15:56.861Z,14.59
2022-09-23T05:17:57.656Z,14.58
2022-09-23T05:20:56.983Z,14.56
2022-09-23T05:22:57.249Z,14.54
2022-09-23T05:24:57.623Z,14.4
2022-09-23T05:27:56.802Z,14.34
2022-09-23T05:30:56.829Z,14.16
2022-09-23T05:33:57.350Z,14.06
2022-09-23T05:36:55.871Z,13.36
2022-09-23T05:39:56.903Z,12.93
2022-09-23T05:41:57.114Z,12.92
2022-09-23T05:44:56.816Z,13.29
2022-09-23T05:47:56.826Z,13.6
2022-09-23T05:50:57.290Z,13.74
2022-09-23T05:53:57.057Z,13.82
2022-09-23T05:56:57.696Z,13.96
2022-09-23T05:58:57.629Z,13.98
2022-09-23T06:01:57.417Z,14.01
2022-09-23T06:04:56.823Z,14.04
2022-09-23T06:07:56.835Z,14.12
2022-09-23T06:09:56.974Z,14.22
2022-09-23T06:12:56.817Z,14.26
2022-09-23T06:14:56.830Z,14.25
2022-09-23T06:16:57.713Z,14.3
2022-09-23T06:19:56.815Z,14.34
2022-09-23T06:21:57.585Z,14.31
2022-09-23T06:24:56.852Z,14.29
2022-09-23T06:26:57.043Z,14.39
2022-09-23T06:28:57.539Z,14.39
2022-09-23T06:31:59.055Z,14.18
2022-09-23T06:34:07.107Z,14.03
2022-09-23T06:36:57.082Z,13.88
2022-09-23T06:39:56.810Z,13.64
2022-09-23T06:42:55.907Z,13.6
2022-09-23T06:44:57.019Z,13.57
2022-09-23T06:47:56.803Z,13.43
2022-09-23T06:50:56.806Z,13.31
2022-09-23T06:54:59.931Z,13.7
2022-09-23T06:56:56.825Z,13.93
2022-09-23T06:59:56.820Z,14.04
2022-09-23T07:01:57.709Z,14.06
2022-09-23T07:05:57.077Z,14.12
2022-09-23T07:08:56.809Z,14.17
2022-09-23T07:10:56.801Z,14.16
2022-09-23T07:13:56.856Z,14.26
2022-09-23T07:16:57.387Z,14.3
2022-09-23T07:19:56.816Z,14.47
2022-09-23T07:21:56.810Z,14.45
2022-09-23T07:23:56.982Z,14.5
2022-09-23T07:25:57.425Z,14.49
2022-09-23T07:27:57.602Z,14.53
2022-09-23T07:31:00.527Z,14.6
2022-09-23T07:33:56.827Z,14.67
2022-09-23T07:36:57.389Z,14.81
2022-09-23T07:39:56.950Z,14.83
2022-09-23T07:41:57.059Z,14.88
2022-09-23T07:43:57.564Z,14.93
2022-09-23T07:46:56.844Z,15.02
2022-09-23T07:50:57.200Z,15.14
2022-09-23T07:53:56.923Z,15.23
2022-09-23T07:56:57.361Z,15.27
2022-09-23T07:59:56.827Z,15.35
2022-09-23T08:02:56.940Z,15.4
2022-09-23T08:04:56.832Z,15.46
2022-09-23T08:06:57.619Z,15.54
2022-09-23T08:09:57.310Z,15.63
2022-09-23T08:12:57.090Z,15.71
2022-09-23T08:15:56.828Z,15.75
2022-09-23T08:17:56.805Z,15.76
2022-09-23T08:19:57.319Z,15.79
2022-09-23T08:21:57.331Z,15.81
2022-09-23T08:24:56.950Z,15.85
2022-09-23T08:26:57.685Z,15.88
2022-09-23T08:29:59.877Z,15.93
2022-09-23T08:31:56.807Z,15.94
2022-09-23T08:33:56.843Z,15.97
2022-09-23T08:35:56.852Z,15.97
2022-09-23T08:37:56.848Z,16.01
2022-09-23T08:40:56.993Z,16.04
2022-09-23T08:42:57.055Z,16.04
2022-09-23T08:45:56.921Z,16.1
2022-09-23T08:48:56.834Z,16.14
2022-09-23T08:50:56.865Z,16.15
2022-09-23T08:53:59.972Z,16.12
2022-09-23T08:56:56.867Z,16.2
2022-09-23T08:58:56.928Z,16.27
2022-09-23T09:01:57.612Z,16.34
2022-09-23T09:04:57.428Z,16.42
2022-09-23T09:07:56.837Z,16.49
2022-09-23T09:09:56.885Z,16.53
2022-09-23T09:12:56.823Z,16.59
2022-09-23T09:14:57.737Z,16.65
2022-09-23T09:17:56.816Z,16.73
2022-09-23T09:19:56.850Z,16.77
2022-09-23T09:21:57.059Z,16.79
2022-09-23T09:24:57.128Z,16.83
2022-09-23T09:27:57.376Z,16.87
2022-09-23T09:30:56.867Z,16.86
2022-09-23T09:32:56.857Z,16.9
2022-09-23T09:35:57.022Z,16.96
2022-09-23T09:38:57.451Z,16.92
2022-09-23T09:41:56.816Z,16.98
2022-09-23T09:43:56.833Z,17.03
2022-09-23T09:45:58.007Z,17.11
2022-09-23T09:48:56.983Z,17.16
2022-09-23T09:51:57.577Z,17.19
2022-09-23T09:54:56.948Z,17.28
2022-09-23T09:56:57.285Z,17.32
2022-09-23T09:58:57.453Z,17.34
2022-09-23T10:01:57.096Z,17.37
2022-09-23T10:04:57.452Z,17.5
2022-09-23T10:10:01.756Z,17.48
2022-09-23T10:12:56.765Z,17.52
2022-09-23T10:14:56.802Z,17.54
2022-09-23T10:16:57.362Z,17.58
2022-09-23T10:19:56.770Z,17.73
2022-09-23T10:21:56.876Z,17.79
2022-09-23T10:23:57.544Z,17.79
2022-09-23T10:26:56.774Z,17.87
2022-09-23T10:28:57.086Z,17.93
2022-09-23T10:30:57.465Z,17.99
2022-09-23T10:33:56.784Z,18.1
2022-09-23T10:35:56.808Z,18.14
2022-09-23T10:37:57.031Z,18.18
2022-09-23T10:40:56.934Z,18.28
2022-09-23T10:42:57.353Z,18.33
2022-09-23T10:45:57.607Z,18.45
2022-09-23T10:48:57.312Z,18.61
2022-09-23T10:51:57.371Z,18.74
2022-09-23T10:54:56.815Z,18.91
2022-09-23T10:58:57.226Z,19.12
2022-09-23T11:01:57.375Z,19.31
2022-09-23T11:05:57.253Z,19.49
2022-09-23T11:08:56.817Z,19.64
2022-09-23T11:11:57.548Z,19.77
2022-09-23T11:14:56.794Z,19.87
2022-09-23T11:16:57.522Z,19.96
2022-09-23T11:18:57.485Z,20.04
2022-09-23T11:21:57.598Z,20.17
2022-09-23T11:25:04.104Z,20.28
2022-09-23T11:27:57.008Z,20.45
2022-09-23T11:29:57.468Z,20.57
2022-09-23T11:32:57.133Z,20.72
2022-09-23T11:35:56.840Z,20.81
2022-09-23T11:38:56.857Z,20.93
2022-09-23T11:40:56.914Z,21.03
2022-09-23T11:42:57.638Z,21.1
2022-09-23T11:45:56.871Z,21.27
2022-09-23T11:48:57.079Z,21.28
2022-09-23T11:50:57.350Z,21.3
2022-09-23T11:52:57.827Z,21.32
2022-09-23T11:55:58.293Z,21.37
2022-09-23T11:59:56.911Z,21.47
2022-09-23T12:03:03.166Z,21.6
2022-09-23T12:05:56.984Z,21.69
2022-09-23T12:08:04.071Z,21.73
2022-09-23T12:10:57.941Z,21.76
2022-09-23T12:12:56.897Z,21.77
2022-09-23T12:15:57.567Z,21.78
2022-09-23T12:18:56.829Z,21.78
2022-09-23T12:20:57.599Z,21.78
2022-09-23T12:23:56.814Z,21.8
2022-09-23T12:25:57.525Z,21.81
2022-09-23T12:28:56.837Z,21.83
2022-09-23T12:30:57.076Z,21.82
2022-09-23T12:33:57.601Z,21.87
2022-09-23T12:36:59.915Z,21.95
2022-09-23T12:38:57.134Z,22.04
2022-09-23T12:41:56.884Z,22.2
2022-09-23T12:43:57.279Z,22.29
2022-09-23T12:45:57.301Z,22.39
2022-09-23T12:48:56.895Z,22.56
2022-09-23T12:51:57.337Z,22.71
2022-09-23T12:53:57.434Z,22.8
2022-09-23T12:56:57.441Z,22.91
2022-09-23T12:59:57.721Z,23
2022-09-23T13:02:57.769Z,23.02
2022-09-23T13:05:56.853Z,22.87
2022-09-23T13:07:56.877Z,22.79
2022-09-23T13:09:57.416Z,22.76
2022-09-23T13:12:56.862Z,22.71
2022-09-23T13:15:57.235Z,22.63
2022-09-23T13:17:57.374Z,22.64
2022-09-23T13:20:56.936Z,22.58
2022-09-23T13:23:56.888Z,22.59
2022-09-23T13:25:56.880Z,22.59
2022-09-23T13:27:57.371Z,22.61
2022-09-23T13:30:57.343Z,22.68
2022-09-23T13:33:56.932Z,22.7
2022-09-23T13:36:55.965Z,22.7
2022-09-23T13:38:57.003Z,22.7
2022-09-23T13:40:57.442Z,22.72
2022-09-23T13:43:57.127Z,22.72
2022-09-23T13:45:57.610Z,22.71
2022-09-23T13:48:56.900Z,22.68
2022-09-23T13:50:57.320Z,22.67
2022-09-23T13:53:56.869Z,22.63
2022-09-23T13:55:56.876Z,22.62
2022-09-23T13:57:56.917Z,22.59
2022-09-23T14:01:57.007Z,22.54
2022-09-23T14:03:57.023Z,22.55
2022-09-23T14:05:57.164Z,22.61
2022-09-23T14:08:56.972Z,22.59
2022-09-23T14:10:56.998Z,22.61
2022-09-23T14:12:57.215Z,22.64
2022-09-23T14:15:56.915Z,22.67
2022-09-23T14:17:56.930Z,22.67
2022-09-23T14:20:57.698Z,22.68
2022-09-23T14:23:56.882Z,22.66
2022-09-23T14:25:56.881Z,22.65
2022-09-23T14:28:00.416Z,22.61
2022-09-23T14:30:56.869Z,22.59
2022-09-23T14:33:55.999Z,22.6
2022-09-23T14:35:56.884Z,22.59
2022-09-23T14:37:57.140Z,22.61
2022-09-23T14:40:56.942Z,22.61
2022-09-23T14:42:56.961Z,22.59
2022-09-23T14:45:56.964Z,22.54
2022-09-23T14:48:56.869Z,22.49
2022-09-23T14:50:57.613Z,22.49
2022-09-23T14:55:57.288Z,22.47
2022-09-23T14:58:56.902Z,22.43
2022-09-23T15:00:56.951Z,22.38
2022-09-23T15:02:56.885Z,22.35
2022-09-23T15:05:58.314Z,22.32
2022-09-23T15:08:56.901Z,22.29
2022-09-23T15:10:56.911Z,22.28
2022-09-23T15:13:56.969Z,22.23
2022-09-23T15:15:56.984Z,22.21
2022-09-23T15:18:56.914Z,22.15
2022-09-23T15:20:57.340Z,22.13
2022-09-23T15:23:56.981Z,22.07
2022-09-23T15:25:57.444Z,22.05
2022-09-23T15:28:56.913Z,22
2022-09-23T15:31:56.943Z,21.96
2022-09-23T15:33:57.447Z,21.97
2022-09-23T15:36:57.822Z,21.93
2022-09-23T15:39:57.448Z,21.79
2022-09-23T15:41:57.463Z,21.75
2022-09-23T15:43:57.612Z,21.73
2022-09-23T15:46:57.143Z,21.71
2022-09-23T15:50:56.925Z,21.66
2022-09-23T15:52:56.978Z,21.66
2022-09-23T15:54:57.044Z,21.66
2022-09-23T15:56:57.221Z,21.65
2022-09-23T15:58:57.665Z,21.65
2022-09-23T16:01:57.611Z,21.64
2022-09-23T16:04:56.912Z,21.64
2022-09-23T16:06:57.268Z,21.63
2022-09-23T16:09:56.940Z,21.62
2022-09-23T16:12:57.207Z,21.62
2022-09-23T16:15:57.560Z,21.61
2022-09-23T16:18:56.912Z,21.6
2022-09-23T16:20:57.669Z,21.58
2022-09-23T16:23:56.936Z,21.52
2022-09-23T16:25:57.022Z,21.51
2022-09-23T16:28:57.530Z,21.5
2022-09-23T16:31:57.107Z,21.45
2022-09-23T16:34:57.217Z,21.4
2022-09-23T16:37:56.924Z,21.36
2022-09-23T16:39:56.917Z,21.36
2022-09-23T16:41:57.283Z,21.37
2022-09-23T16:44:56.997Z,21.35
2022-09-23T16:46:57.619Z,21.33
2022-09-23T16:48:57.724Z,21.3
2022-09-23T16:51:56.916Z,21.24
2022-09-23T16:54:57.224Z,21.19
2022-09-23T16:56:57.259Z,21.18
2022-09-23T16:59:57.757Z,21.15
2022-09-23T17:01:57.923Z,21.13
2022-09-23T17:04:56.928Z,21.05
2022-09-23T17:06:57.757Z,20.94
2022-09-23T17:09:56.946Z,20.91
2022-09-23T17:12:57.080Z,20.88
2022-09-23T17:14:57.774Z,20.85
2022-09-23T17:17:56.921Z,20.83
2022-09-23T17:19:58.425Z,20.86
2022-09-23T17:22:57.627Z,20.85
2022-09-23T17:25:56.957Z,20.76
2022-09-23T17:27:57.000Z,20.72
2022-09-23T17:30:57.025Z,20.73
2022-09-23T17:32:57.469Z,20.69
2022-09-23T17:35:57.408Z,20.67
2022-09-23T17:38:56.038Z,20.67
2022-09-23T17:40:57.727Z,20.72
2022-09-23T17:43:57.551Z,20.74
2022-09-23T17:46:57.626Z,20.66
2022-09-23T17:49:57.610Z,20.57
2022-09-23T17:52:56.990Z,20.53
2022-09-23T17:54:57.385Z,20.5
2022-09-23T17:56:57.401Z,20.45
2022-09-23T17:59:56.019Z,20.44
2022-09-23T18:01:57.033Z,20.37
2022-09-23T18:03:56.970Z,20.33
2022-09-23T18:05:56.978Z,20.29
2022-09-23T18:07:56.966Z,20.27
2022-09-23T18:09:57.425Z,20.21
2022-09-23T18:11:57.426Z,20.12
2022-09-23T18:13:57.745Z,20.12
2022-09-23T18:16:56.977Z,20.1
2022-09-23T18:18:57.711Z,20.04
2022-09-23T18:21:56.936Z,19.96
2022-09-23T18:24:57.639Z,19.87
2022-09-23T18:27:57.743Z,19.92
2022-09-23T18:30:57.041Z,19.79
2022-09-23T18:33:56.968Z,19.87
2022-09-23T18:35:56.984Z,19.89
2022-09-23T18:37:56.968Z,19.82
2022-09-23T18:40:57.717Z,19.74
2022-09-23T18:43:57.006Z,19.71
2022-09-23T18:46:56.932Z,19.65
2022-09-23T18:48:57.530Z,19.56
2022-09-23T18:50:57.767Z,19.59
2022-09-23T18:53:56.977Z,19.56
2022-09-23T18:56:56.953Z,19.43
2022-09-23T18:59:56.932Z,19.36
2022-09-23T19:01:57.933Z,19.44
2022-09-23T19:04:57.857Z,19.45
2022-09-23T19:07:56.984Z,19.37
2022-09-23T19:09:57.897Z,19.31
2022-09-23T19:12:57.700Z,19.34
2022-09-23T19:15:57.011Z,19.33
2022-09-23T19:18:56.964Z,19.37
2022-09-23T19:20:57.008Z,19.37
2022-09-23T19:22:57.017Z,19.31
2022-09-23T19:24:57.579Z,19.31
2022-09-23T19:27:57.017Z,19.2
2022-09-23T19:29:57.726Z,19.17
2022-09-23T19:32:57.188Z,19.15
2022-09-23T19:35:57.710Z,19.06
2022-09-23T19:38:56.977Z,19.02
2022-09-23T19:40:57.021Z,18.92
2022-09-23T19:43:56.969Z,18.82
2022-09-23T19:45:57.061Z,18.76
2022-09-23T19:48:57.293Z,18.83
2022-09-23T19:51:56.986Z,18.78
2022-09-23T19:53:57.656Z,18.75
2022-09-23T19:56:57.437Z,18.7
2022-09-23T19:58:57.450Z,18.75
2022-09-23T20:00:57.731Z,18.68
2022-09-23T20:03:56.983Z,18.67
2022-09-23T20:05:57.387Z,18.62
2022-09-23T20:07:57.435Z,18.56
2022-09-23T20:10:56.974Z,18.51
2022-09-23T20:12:57.188Z,18.49
2022-09-23T20:15:57.016Z,18.52
2022-09-23T20:17:57.670Z,18.54
2022-09-23T20:20:57.575Z,18.52
2022-09-23T20:23:57.002Z,18.51
2022-09-23T20:25:57.495Z,18.45
2022-09-23T20:27:57.800Z,18.49
2022-09-23T20:31:50.411Z,18.52
2022-09-23T20:33:57.114Z,18.48
2022-09-23T20:35:57.561Z,18.51
2022-09-23T20:38:57.008Z,18.41
2022-09-23T20:40:57.209Z,18.43
2022-09-23T20:42:57.539Z,18.37
2022-09-23T20:45:56.970Z,18.52
2022-09-23T20:47:57.463Z,18.51
2022-09-23T20:50:57.529Z,18.44
2022-09-23T20:52:57.577Z,18.39
2022-09-23T20:54:58.110Z,18.4
2022-09-23T20:57:57.709Z,18.34
2022-09-23T21:00:57.046Z,18.46
2022-09-23T21:03:57.003Z,18.4
2022-09-23T21:05:57.156Z,18.29
2022-09-23T21:08:00.805Z,18.24
2022-09-23T21:10:56.994Z,18.24
2022-09-23T21:12:57.015Z,18.29
2022-09-23T21:14:57.346Z,18.27
2022-09-23T21:17:57.014Z,18.21
2022-09-23T21:19:57.790Z,18.16
2022-09-23T21:22:57.030Z,18.11
2022-09-23T21:25:57.039Z,18.11
2022-09-23T21:27:57.649Z,18.14
2022-09-23T21:29:57.751Z,18.2
2022-09-23T21:32:57.238Z,18.12
2022-09-23T21:35:57.082Z,18.04
2022-09-23T21:38:57.020Z,18.09
2022-09-23T21:41:57.023Z,18.11
2022-09-23T21:43:57.029Z,18.08
2022-09-23T21:46:57.107Z,18.08
2022-09-23T21:48:57.739Z,18.06
2022-09-23T21:51:56.997Z,18.08
2022-09-23T21:53:57.452Z,18.06
2022-09-23T21:55:57.767Z,18.09
2022-09-23T21:58:57.291Z,18.18
2022-09-23T22:04:57.080Z,18.14
2022-09-23T22:06:57.483Z,18.15
2022-09-23T22:09:57.020Z,18.16
2022-09-23T22:12:57.838Z,18.08
2022-09-23T22:15:57.437Z,18.14
2022-09-23T22:18:57.006Z,18.07
2022-09-23T22:20:57.025Z,18.1
2022-09-23T22:23:57.023Z,18.04
2022-09-23T22:26:00.739Z,17.99
2022-09-23T22:28:57.009Z,17.96
2022-09-23T22:31:57.047Z,18
2022-09-23T22:33:57.526Z,18.03
2022-09-23T22:36:57.400Z,18.01
2022-09-23T22:39:57.163Z,17.99
2022-09-23T22:42:57.478Z,17.94
2022-09-23T22:45:57.065Z,17.87
2022-09-23T22:48:57.321Z,17.91
2022-09-23T22:51:03.313Z,17.83
2022-09-23T22:53:57.565Z,17.87
2022-09-23T22:56:57.395Z,17.78
2022-09-23T22:59:57.035Z,17.78
2022-09-23T23:02:57.400Z,17.77
2022-09-23T23:05:57.007Z,17.75
2022-09-23T23:07:57.004Z,17.74
2022-09-23T23:09:57.428Z,17.57
2022-09-23T23:12:57.074Z,17.07
2022-09-23T23:14:57.377Z,17.06
2022-09-23T23:16:57.464Z,17.15
2022-09-23T23:19:57.058Z,17.26
2022-09-23T23:21:57.454Z,17.31
2022-09-23T23:24:57.035Z,17.37
2022-09-23T23:26:57.534Z,17.41
2022-09-23T23:29:57.252Z,17.41
2022-09-23T23:32:57.600Z,17.39
2022-09-23T23:35:57.071Z,17.42
2022-09-23T23:37:57.699Z,17.37
2022-09-23T23:40:57.664Z,17.35
2022-09-23T23:43:57.048Z,17.43
2022-09-23T23:46:57.363Z,17.49
2022-09-23T23:48:57.078Z,17.56
2022-09-23T23:51:57.059Z,17.75
2022-09-23T23:53:57.661Z,17.9
2022-09-23T23:56:57.183Z,17.9
2022-09-23T23:59:57.011Z,17.87
